Time;durP1;ratioP1;P1;durP2;ratioP2;P2;SDS_P1;SDS_P2;PMS_P1;PMS_P2;Temp;Humidity;BMP_temperature;BMP_pressure;BME280_temperature;BME280_humidity;BME280_pressure;Samples;Min_cycle;Max_cycle;Signal;HPM_P1;HPM_P2
2022/07/25 00:02:05;;;;;;;;;;;23.20;99.90;;;;;;4957595;29;19910;-80
2022/07/25 00:04:30;;;;;;;;;;;23.20;99.90;;;;;;4957647;28;19965;-80
2022/07/25 00:06:56;;;;;;;;;;;23.20;99.90;;;;;;4940756;29;19945;-80
2022/07/25 00:09:22;;;;;;;;;;;23.20;99.90;;;;;;4946559;29;19974;-80
2022/07/25 00:11:48;;;;;;;;;;;23.20;99.90;;;;;;4953249;29;19910;-82
2022/07/25 00:14:13;;;;;;;;;;;23.20;99.90;;;;;;4953796;29;19913;-80
2022/07/25 00:16:39;;;;;;;;;;;23.30;99.90;;;;;;4953895;29;19910;-81
2022/07/25 00:19:05;;;;;;;;;;;23.30;99.90;;;;;;4944211;29;19910;-81
2022/07/25 00:21:31;;;;;;;;;;;23.30;99.90;;;;;;4948782;29;20001;-80
2022/07/25 00:23:57;;;;;;;;;;;23.30;99.90;;;;;;4952512;28;19989;-82
2022/07/25 00:26:22;;;;;;;;;;;23.30;99.70;;;;;;4944238;29;20562;-81
2022/07/25 00:28:48;;;;;;;;;;;23.30;99.60;;;;;;4929241;29;19923;-80
2022/07/25 00:31:13;;;;;;;;;;;23.40;99.50;;;;;;4922076;29;20017;-80
2022/07/25 00:33:39;;;;;;;;;;;23.50;99.30;;;;;;4918745;29;19915;-81
2022/07/25 00:36:05;;;;;;;;;;;23.40;99.10;;;;;;4917471;29;19915;-80
2022/07/25 00:38:31;;;;;;;;;;;23.40;98.90;;;;;;4916878;29;19907;-81
2022/07/25 00:40:56;;;;;;;;;;;23.40;98.90;;;;;;4912119;29;20275;-81
2022/07/25 00:43:22;;;;;;;;;;;23.30;99.00;;;;;;4917567;29;19955;-81
2022/07/25 00:45:48;;;;;;;;;;;23.40;98.60;;;;;;4902555;29;19998;-81
2022/07/25 00:48:13;;;;;;;;;;;23.40;98.70;;;;;;4909795;29;19918;-81
2022/07/25 00:50:39;;;;;;;;;;;23.50;98.40;;;;;;4919364;29;19947;-80
2022/07/25 00:53:04;;;;;;;;;;;23.40;98.50;;;;;;4917702;29;20063;-80
2022/07/25 00:55:30;;;;;;;;;;;23.40;98.40;;;;;;4905447;29;19922;-80
2022/07/25 00:57:56;;;;;;;;;;;23.40;98.40;;;;;;4910632;29;19922;-80
2022/07/25 01:00:21;;;;;;;;;;;23.40;98.50;;;;;;4910045;29;19919;-81
2022/07/25 01:02:47;;;;;;;;;;;23.30;98.60;;;;;;4915907;29;19914;-80
2022/07/25 01:05:12;;;;;;;;;;;23.20;98.50;;;;;;4924181;29;19907;-80
2022/07/25 01:07:38;;;;;;;;;;;23.10;98.70;;;;;;4919183;29;19907;-80
2022/07/25 01:10:04;;;;;;;;;;;23.00;99.00;;;;;;4917599;29;19954;-80
2022/07/25 01:12:30;;;;;;;;;;;23.00;99.20;;;;;;4917716;29;19918;-81
2022/07/25 01:14:56;;;;;;;;;;;22.90;99.20;;;;;;4919643;29;20374;-80
2022/07/25 01:17:22;;;;;;;;;;;22.90;99.20;;;;;;4913995;29;20084;-80
2022/07/25 01:19:50;;;;;;;;;;;22.90;99.10;;;;;;4910418;29;19915;-81
2022/07/25 01:22:15;;;;;;;;;;;22.90;99.20;;;;;;4912875;29;19918;-81
2022/07/25 01:24:41;;;;;;;;;;;22.90;99.30;;;;;;4911007;29;20341;-80
2022/07/25 01:27:06;;;;;;;;;;;22.90;99.10;;;;;;4912337;29;19907;-80
2022/07/25 01:29:32;;;;;;;;;;;22.90;98.80;;;;;;4924958;29;19994;-80
2022/07/25 01:31:57;;;;;;;;;;;22.90;98.90;;;;;;4947161;29;20013;-80
2022/07/25 01:34:23;;;;;;;;;;;22.90;98.70;;;;;;4930354;29;19930;-81
2022/07/25 01:36:48;;;;;;;;;;;22.90;98.80;;;;;;4929712;29;20017;-81
2022/07/25 01:39:14;;;;;;;;;;;22.90;98.70;;;;;;4929275;29;19907;-81
2022/07/25 01:41:40;;;;;;;;;;;22.80;98.70;;;;;;4921175;29;20006;-81
2022/07/25 01:44:05;;;;;;;;;;;22.90;98.60;;;;;;4936984;29;20332;-80
2022/07/25 01:46:31;;;;;;;;;;;23.00;98.40;;;;;;4931965;29;19907;-80
2022/07/25 01:48:56;;;;;;;;;;;23.10;98.30;;;;;;4927476;29;19929;-80
2022/07/25 01:51:22;;;;;;;;;;;23.10;98.30;;;;;;4922260;29;19911;-80
2022/07/25 01:53:47;;;;;;;;;;;23.10;98.10;;;;;;4925983;29;19971;-80
2022/07/25 01:56:13;;;;;;;;;;;23.20;98.00;;;;;;4926268;29;19915;-80
2022/07/25 01:58:38;;;;;;;;;;;23.10;98.10;;;;;;4927468;29;19907;-80
2022/07/25 02:01:04;;;;;;;;;;;23.10;98.00;;;;;;4939027;29;19910;-80
2022/07/25 02:03:29;;;;;;;;;;;23.10;98.10;;;;;;4935802;29;19941;-81
2022/07/25 02:05:59;;;;;;;;;;;23.00;98.00;;;;;;4927725;29;20006;-80
2022/07/25 02:08:24;;;;;;;;;;;23.00;98.10;;;;;;4933876;29;20001;-81
2022/07/25 02:10:50;;;;;;;;;;;23.00;98.50;;;;;;4934004;29;20029;-80
2022/07/25 02:13:16;;;;;;;;;;;23.00;98.30;;;;;;4934947;29;19993;-80
2022/07/25 02:15:41;;;;;;;;;;;22.90;98.30;;;;;;4931301;29;19917;-81
2022/07/25 02:18:07;;;;;;;;;;;23.00;98.20;;;;;;4929936;29;20002;-80
2022/07/25 02:20:32;;;;;;;;;;;23.00;98.10;;;;;;4925909;29;19914;-81
2022/07/25 02:22:58;;;;;;;;;;;23.00;98.10;;;;;;4923867;29;20368;-80
2022/07/25 02:25:24;;;;;;;;;;;23.00;98.10;;;;;;4931222;29;20663;-80
2022/07/25 02:27:49;;;;;;;;;;;23.00;98.00;;;;;;4930784;29;19919;-80
2022/07/25 02:30:15;;;;;;;;;;;23.00;98.00;;;;;;4952673;28;20371;-80
2022/07/25 02:32:40;;;;;;;;;;;23.00;97.90;;;;;;4935897;29;19965;-80
2022/07/25 02:35:06;;;;;;;;;;;23.00;98.00;;;;;;4935039;29;19917;-80
2022/07/25 02:37:32;;;;;;;;;;;23.00;97.90;;;;;;4940720;28;19922;-80
2022/07/25 02:39:57;;;;;;;;;;;23.10;97.80;;;;;;4938945;29;20038;-80
2022/07/25 02:42:23;;;;;;;;;;;23.00;97.80;;;;;;4949653;29;19965;-80
2022/07/25 02:44:48;;;;;;;;;;;23.00;98.00;;;;;;4946169;29;20351;-80
2022/07/25 02:47:14;;;;;;;;;;;23.10;97.70;;;;;;4940972;29;19907;-80
2022/07/25 02:49:39;;;;;;;;;;;23.10;97.80;;;;;;4945785;29;20311;-80
2022/07/25 02:52:05;;;;;;;;;;;23.10;97.80;;;;;;4944757;29;19966;-81
2022/07/25 02:54:30;;;;;;;;;;;23.00;98.10;;;;;;4943549;29;20109;-80
2022/07/25 02:56:56;;;;;;;;;;;23.00;97.90;;;;;;4931473;29;20000;-81
2022/07/25 02:59:22;;;;;;;;;;;22.90;98.20;;;;;;4951405;29;19974;-80
2022/07/25 03:01:47;;;;;;;;;;;22.90;98.10;;;;;;4949490;29;20384;-80
2022/07/25 03:04:13;;;;;;;;;;;22.80;98.30;;;;;;4944844;29;20418;-80
2022/07/25 03:06:38;;;;;;;;;;;22.80;98.30;;;;;;4927276;29;20005;-80
2022/07/25 03:09:04;;;;;;;;;;;22.80;98.20;;;;;;4952941;29;19910;-81
2022/07/25 03:11:29;;;;;;;;;;;22.80;98.30;;;;;;4923284;29;19910;-80
2022/07/25 03:13:55;;;;;;;;;;;22.80;98.50;;;;;;4930012;29;19915;-80
2022/07/25 03:16:20;;;;;;;;;;;22.90;98.40;;;;;;4944122;29;20378;-80
2022/07/25 03:18:46;;;;;;;;;;;22.90;98.10;;;;;;4934838;29;19910;-80
2022/07/25 03:21:11;;;;;;;;;;;22.90;98.20;;;;;;4927678;29;19913;-80
2022/07/25 03:23:37;;;;;;;;;;;22.90;98.10;;;;;;4948701;29;19934;-80
2022/07/25 03:26:03;;;;;;;;;;;22.80;98.30;;;;;;4946365;29;19953;-81
2022/07/25 03:28:28;;;;;;;;;;;22.80;98.30;;;;;;4933845;28;19922;-80
2022/07/25 03:30:54;;;;;;;;;;;22.80;98.10;;;;;;4933461;29;19941;-80
2022/07/25 03:33:19;;;;;;;;;;;22.80;98.30;;;;;;4930174;29;19945;-80
2022/07/25 03:35:45;;;;;;;;;;;22.80;98.20;;;;;;4943961;29;19941;-80
2022/07/25 03:38:10;;;;;;;;;;;22.80;98.40;;;;;;4926700;29;20290;-80
2022/07/25 03:40:36;;;;;;;;;;;22.90;98.10;;;;;;4940718;29;19907;-80
2022/07/25 03:43:02;;;;;;;;;;;22.90;98.00;;;;;;4936408;29;19906;-80
2022/07/25 03:45:27;;;;;;;;;;;22.90;98.00;;;;;;4935865;29;19997;-80
2022/07/25 03:47:53;;;;;;;;;;;23.00;98.20;;;;;;4930910;29;19906;-81
2022/07/25 03:50:18;;;;;;;;;;;23.00;97.90;;;;;;4946392;29;19929;-80
2022/07/25 03:52:44;;;;;;;;;;;23.00;97.80;;;;;;4926200;29;19914;-80
2022/07/25 03:55:10;;;;;;;;;;;23.00;98.00;;;;;;4940015;29;20009;-80
2022/07/25 03:57:36;;;;;;;;;;;23.00;97.80;;;;;;4950998;29;19914;-80
2022/07/25 04:00:03;;;;;;;;;;;23.00;97.90;;;;;;4945165;29;20579;-80
2022/07/25 04:02:28;;;;;;;;;;;23.00;97.90;;;;;;4933592;29;19962;-80
2022/07/25 04:04:54;;;;;;;;;;;23.00;97.70;;;;;;4946648;29;20406;-80
2022/07/25 04:07:19;;;;;;;;;;;23.00;97.60;;;;;;4953001;29;19914;-81
2022/07/25 04:09:45;;;;;;;;;;;23.10;97.60;;;;;;4941543;29;19917;-80
2022/07/25 04:12:10;;;;;;;;;;;23.10;97.50;;;;;;4956167;29;19907;-81
2022/07/25 04:14:36;;;;;;;;;;;23.10;97.60;;;;;;4952922;29;19918;-81
2022/07/25 04:17:01;;;;;;;;;;;23.10;97.50;;;;;;4933632;29;19917;-80
2022/07/25 04:19:27;;;;;;;;;;;23.10;97.60;;;;;;4927927;29;19910;-80
2022/07/25 04:21:52;;;;;;;;;;;23.10;97.80;;;;;;4963487;23;19910;-64
2022/07/25 04:24:18;;;;;;;;;;;23.10;97.80;;;;;;4966247;28;20441;-63
2022/07/25 04:26:43;;;;;;;;;;;23.10;97.50;;;;;;4960926;28;19910;-63
2022/07/25 04:29:09;;;;;;;;;;;23.20;97.40;;;;;;4967584;28;20579;-63
2022/07/25 04:31:34;;;;;;;;;;;23.30;97.30;;;;;;4963713;28;19936;-63
2022/07/25 04:34:00;;;;;;;;;;;23.30;97.10;;;;;;4958862;28;19925;-62
2022/07/25 04:36:26;;;;;;;;;;;23.40;97.10;;;;;;4941625;28;19921;-63
2022/07/25 04:38:52;;;;;;;;;;;23.40;96.90;;;;;;4956607;28;20322;-63
2022/07/25 04:41:17;;;;;;;;;;;23.50;97.00;;;;;;4960031;28;19910;-63
2022/07/25 04:43:43;;;;;;;;;;;23.50;97.00;;;;;;4955895;28;19911;-63
2022/07/25 04:46:09;;;;;;;;;;;23.50;97.00;;;;;;4937553;29;20362;-63
2022/07/25 04:48:34;;;;;;;;;;;23.60;96.90;;;;;;4961212;28;19937;-63
2022/07/25 04:51:00;;;;;;;;;;;23.60;97.10;;;;;;4958666;28;19906;-63
2022/07/25 04:53:25;;;;;;;;;;;23.70;96.80;;;;;;4962908;28;20366;-63
2022/07/25 04:55:51;;;;;;;;;;;23.80;96.70;;;;;;4967574;28;19913;-63
2022/07/25 04:58:16;;;;;;;;;;;23.90;96.60;;;;;;4960540;28;19943;-63
2022/07/25 05:00:42;;;;;;;;;;;23.90;96.70;;;;;;4962818;28;19918;-63
2022/07/25 05:03:07;;;;;;;;;;;24.00;96.50;;;;;;4937105;28;19925;-63
2022/07/25 05:05:33;;;;;;;;;;;24.10;96.30;;;;;;4954915;28;19907;-63
2022/07/25 05:07:59;;;;;;;;;;;24.20;96.30;;;;;;4959129;28;19914;-63
2022/07/25 05:10:26;;;;;;;;;;;24.20;96.20;;;;;;4962753;28;19922;-66
2022/07/25 05:12:51;;;;;;;;;;;24.30;96.00;;;;;;4965452;28;20324;-60
2022/07/25 05:15:17;;;;;;;;;;;24.30;96.10;;;;;;4958372;28;19910;-61
2022/07/25 05:17:42;;;;;;;;;;;24.40;95.80;;;;;;4959118;28;20073;-60
2022/07/25 05:20:08;;;;;;;;;;;24.50;95.90;;;;;;4963313;28;19910;-61
2022/07/25 05:22:34;;;;;;;;;;;24.50;95.70;;;;;;4960516;28;19934;-60
2022/07/25 05:25:01;;;;;;;;;;;24.50;95.50;;;;;;4961891;28;20341;-61
2022/07/25 05:27:27;;;;;;;;;;;24.70;95.40;;;;;;4961358;28;19945;-60
2022/07/25 05:29:52;;;;;;;;;;;24.70;95.20;;;;;;4963042;28;19910;-60
2022/07/25 05:32:18;;;;;;;;;;;24.80;95.00;;;;;;4958417;28;19906;-60
2022/07/25 05:34:44;;;;;;;;;;;24.80;95.10;;;;;;4957410;28;19914;-60
2022/07/25 05:37:10;;;;;;;;;;;24.80;95.10;;;;;;4959189;28;19918;-60
2022/07/25 05:39:38;;;;;;;;;;;24.80;95.10;;;;;;4955318;28;20376;-60
2022/07/25 05:42:04;;;;;;;;;;;24.80;95.00;;;;;;4960893;28;19909;-60
2022/07/25 05:44:29;;;;;;;;;;;24.90;94.90;;;;;;4958965;28;19921;-60
2022/07/25 05:46:55;;;;;;;;;;;25.10;94.90;;;;;;4956798;28;20534;-60
2022/07/25 05:49:21;;;;;;;;;;;25.10;94.40;;;;;;4953401;28;19914;-60
2022/07/25 05:51:46;;;;;;;;;;;25.10;94.60;;;;;;4964691;28;19910;-60
2022/07/25 05:54:12;;;;;;;;;;;25.20;94.60;;;;;;4960217;28;19910;-60
2022/07/25 05:56:37;;;;;;;;;;;25.20;94.60;;;;;;4953573;28;19917;-60
2022/07/25 05:59:03;;;;;;;;;;;25.20;94.50;;;;;;4947387;28;20382;-60
2022/07/25 06:01:29;;;;;;;;;;;25.30;94.60;;;;;;4963136;28;19993;-60
2022/07/25 06:03:54;;;;;;;;;;;25.40;94.70;;;;;;4953682;28;20195;-60
2022/07/25 06:06:20;;;;;;;;;;;25.40;94.60;;;;;;4962798;28;19910;-59
2022/07/25 06:08:46;;;;;;;;;;;25.40;94.30;;;;;;4962822;28;19906;-62
2022/07/25 06:11:11;;;;;;;;;;;25.40;94.40;;;;;;4964240;28;19938;-62
2022/07/25 06:13:37;;;;;;;;;;;25.40;94.50;;;;;;4969309;28;19917;-62
2022/07/25 06:16:02;;;;;;;;;;;25.40;94.60;;;;;;4966062;28;19949;-62
2022/07/25 06:18:28;;;;;;;;;;;25.40;94.70;;;;;;4965027;28;19910;-62
2022/07/25 06:20:53;;;;;;;;;;;25.50;94.40;;;;;;4961470;28;20290;-62
2022/07/25 06:23:19;;;;;;;;;;;25.60;94.60;;;;;;4961791;28;19922;-62
2022/07/25 06:25:45;;;;;;;;;;;25.70;94.60;;;;;;4964311;28;19996;-62
2022/07/25 06:28:13;;;;;;;;;;;25.90;94.40;;;;;;4967561;28;19909;-62
2022/07/25 06:30:45;;;;;;;;;;;26.20;94.40;;;;;;4966266;28;19914;-62
2022/07/25 06:33:10;;;;;;;;;;;26.50;94.00;;;;;;4964433;28;19954;-62
2022/07/25 06:35:36;;;;;;;;;;;26.50;93.60;;;;;;4957108;28;20325;-62
2022/07/25 06:38:02;;;;;;;;;;;26.70;93.90;;;;;;4958347;28;20267;-62
2022/07/25 06:40:27;;;;;;;;;;;26.70;93.20;;;;;;4959340;28;19918;-62
2022/07/25 06:42:53;;;;;;;;;;;26.60;93.30;;;;;;4955595;28;20271;-62
2022/07/25 06:45:18;;;;;;;;;;;26.50;93.80;;;;;;4958054;28;20355;-62
2022/07/25 06:47:44;;;;;;;;;;;26.60;93.80;;;;;;4958606;28;19913;-62
2022/07/25 06:50:11;;;;;;;;;;;26.60;93.70;;;;;;4961043;28;19906;-62
2022/07/25 06:52:37;;;;;;;;;;;26.60;93.60;;;;;;4953487;28;19926;-62
2022/07/25 06:55:03;;;;;;;;;;;26.60;93.70;;;;;;4946708;28;20399;-62
2022/07/25 06:57:29;;;;;;;;;;;26.70;93.80;;;;;;4952827;28;19921;-62
2022/07/25 06:59:54;;;;;;;;;;;26.80;94.10;;;;;;4948233;28;20437;-62
2022/07/25 07:02:20;;;;;;;;;;;26.80;93.40;;;;;;4958790;28;19906;-62
2022/07/25 07:04:46;;;;;;;;;;;26.80;93.40;;;;;;4957271;28;20377;-62
2022/07/25 07:07:11;;;;;;;;;;;26.90;93.50;;;;;;4957491;28;20427;-62
2022/07/25 07:09:37;;;;;;;;;;;26.90;93.00;;;;;;4956662;28;19993;-63
2022/07/25 07:12:03;;;;;;;;;;;27.00;93.00;;;;;;4947389;28;19917;-62
2022/07/25 07:14:28;;;;;;;;;;;27.20;92.90;;;;;;4951727;28;20370;-62
2022/07/25 07:16:54;;;;;;;;;;;27.20;92.70;;;;;;4957568;28;19968;-62
2022/07/25 07:19:19;;;;;;;;;;;27.20;92.00;;;;;;4957181;28;20060;-62
2022/07/25 07:21:45;;;;;;;;;;;27.30;91.90;;;;;;4936850;28;19910;-62
2022/07/25 07:24:10;;;;;;;;;;;27.30;92.00;;;;;;4945704;28;19990;-62
2022/07/25 07:26:36;;;;;;;;;;;27.40;91.60;;;;;;4952484;28;19914;-62
2022/07/25 07:29:02;;;;;;;;;;;27.50;91.50;;;;;;4964961;28;19912;-62
2022/07/25 07:31:28;;;;;;;;;;;27.60;91.50;;;;;;4958140;28;19916;-62
2022/07/25 07:33:53;;;;;;;;;;;27.60;91.30;;;;;;4940260;28;20308;-62
2022/07/25 07:36:19;;;;;;;;;;;27.70;91.30;;;;;;4956295;28;19914;-62
2022/07/25 07:38:45;;;;;;;;;;;27.80;90.90;;;;;;4938686;29;19907;-63
2022/07/25 07:41:10;;;;;;;;;;;27.90;91.00;;;;;;4941206;28;19953;-62
2022/07/25 07:43:37;;;;;;;;;;;27.90;90.90;;;;;;4937817;29;19906;-63
2022/07/25 07:46:03;;;;;;;;;;;28.10;91.00;;;;;;4941590;28;20290;-63
2022/07/25 07:48:29;;;;;;;;;;;28.10;90.80;;;;;;4950517;28;19949;-62
2022/07/25 07:50:54;;;;;;;;;;;28.20;91.00;;;;;;4938024;28;19958;-62
2022/07/25 07:53:20;;;;;;;;;;;28.20;91.70;;;;;;4963961;28;19918;-62
2022/07/25 07:55:53;;;;;;;;;;;28.20;90.80;;;;;;4962859;28;19906;-63
2022/07/25 07:58:19;;;;;;;;;;;28.20;91.10;;;;;;4960425;28;19910;-62
2022/07/25 08:00:46;;;;;;;;;;;28.30;90.60;;;;;;4964286;28;19913;-62
2022/07/25 08:03:11;;;;;;;;;;;28.10;90.80;;;;;;4959165;28;19906;-62
2022/07/25 08:05:41;;;;;;;;;;;28.20;90.70;;;;;;4959277;28;19937;-62
2022/07/25 08:08:08;;;;;;;;;;;28.30;90.40;;;;;;4961100;28;19913;-62
2022/07/25 08:10:35;;;;;;;;;;;28.20;90.80;;;;;;4961096;28;19913;-62
2022/07/25 08:13:02;;;;;;;;;;;28.30;90.70;;;;;;4962379;28;19906;-62
2022/07/25 08:15:27;;;;;;;;;;;28.40;91.20;;;;;;4961737;28;19910;-62
2022/07/25 08:17:53;;;;;;;;;;;28.30;90.50;;;;;;4960843;28;20389;-62
2022/07/25 08:20:21;;;;;;;;;;;28.30;90.60;;;;;;4946196;28;19906;-62
2022/07/25 08:22:47;;;;;;;;;;;28.40;90.60;;;;;;4958421;28;19922;-62
2022/07/25 08:25:15;;;;;;;;;;;28.80;90.70;;;;;;4949975;28;19953;-62
2022/07/25 08:27:40;;;;;;;;;;;29.10;90.20;;;;;;4961756;28;19906;-62
2022/07/25 08:30:07;;;;;;;;;;;29.30;90.00;;;;;;4966098;28;20020;-62
2022/07/25 08:32:33;;;;;;;;;;;29.50;89.80;;;;;;4962460;28;19906;-62
2022/07/25 08:34:59;;;;;;;;;;;29.70;89.10;;;;;;4960686;28;19906;-62
2022/07/25 08:37:25;;;;;;;;;;;29.80;88.30;;;;;;4960027;28;20402;-63
2022/07/25 08:39:51;;;;;;;;;;;29.90;88.10;;;;;;4966684;28;20597;-63
2022/07/25 08:42:18;;;;;;;;;;;30.50;88.20;;;;;;4960795;28;20271;-63
2022/07/25 08:44:47;;;;;;;;;;;31.00;86.60;;;;;;4958352;28;20009;-63
2022/07/25 08:47:14;;;;;;;;;;;31.40;85.00;;;;;;4959099;28;20373;-63
2022/07/25 08:49:40;;;;;;;;;;;31.10;84.80;;;;;;4959052;28;19906;-62
2022/07/25 08:52:07;;;;;;;;;;;31.10;85.20;;;;;;4960923;28;19941;-61
2022/07/25 08:54:33;;;;;;;;;;;31.20;84.30;;;;;;4959468;28;20389;-61
2022/07/25 08:56:59;;;;;;;;;;;31.60;83.90;;;;;;4946054;28;19910;-61
2022/07/25 08:59:24;;;;;;;;;;;31.20;82.70;;;;;;4958290;28;19906;-63
2022/07/25 09:01:51;;;;;;;;;;;31.20;83.50;;;;;;4950782;28;19929;-63
2022/07/25 09:04:17;;;;;;;;;;;30.90;84.60;;;;;;4967686;28;20373;-65
2022/07/25 09:06:49;;;;;;;;;;;30.20;84.90;;;;;;4939433;28;20017;-66
2022/07/25 09:09:15;;;;;;;;;;;30.10;86.10;;;;;;4962795;28;19906;-65
2022/07/25 09:11:41;;;;;;;;;;;30.40;86.00;;;;;;4963659;28;20247;-65
2022/07/25 09:14:09;;;;;;;;;;;30.50;85.00;;;;;;4965872;28;19910;-65
2022/07/25 09:16:36;;;;;;;;;;;30.90;84.70;;;;;;4959925;28;19914;-65
2022/07/25 09:19:05;;;;;;;;;;;30.80;85.30;;;;;;4964882;28;20425;-65
2022/07/25 09:21:30;;;;;;;;;;;30.70;83.80;;;;;;4960656;28;19906;-65
2022/07/25 09:24:06;;;;;;;;;;;30.50;83.70;;;;;;4950172;28;19926;-65
2022/07/25 09:26:41;;;;;;;;;;;29.70;83.90;;;;;;4958601;28;19945;-63
2022/07/25 09:29:07;;;;;;;;;;;29.50;85.30;;;;;;4963992;28;19913;-64
2022/07/25 09:31:33;;;;;;;;;;;29.50;84.80;;;;;;4954146;28;19907;-62
2022/07/25 09:34:00;;;;;;;;;;;29.80;86.10;;;;;;4960769;28;20354;-64
2022/07/25 09:36:26;;;;;;;;;;;29.60;84.80;;;;;;4961602;28;20095;-63
2022/07/25 09:38:55;;;;;;;;;;;29.50;85.50;;;;;;4954806;28;20362;-63
2022/07/25 09:41:21;;;;;;;;;;;29.30;85.60;;;;;;4965585;28;19907;-63
2022/07/25 09:43:46;;;;;;;;;;;29.50;86.10;;;;;;4967649;28;19906;-63
2022/07/25 09:46:12;;;;;;;;;;;29.70;87.40;;;;;;4950864;28;20262;-65
2022/07/25 09:48:39;;;;;;;;;;;30.10;85.80;;;;;;4952991;28;19917;-63
2022/07/25 09:51:05;;;;;;;;;;;30.20;84.80;;;;;;4961063;28;19956;-65
2022/07/25 09:53:31;;;;;;;;;;;30.60;86.10;;;;;;4972001;28;19920;-66
2022/07/25 09:55:56;;;;;;;;;;;31.40;84.50;;;;;;4966227;28;19977;-66
2022/07/25 09:58:26;;;;;;;;;;;32.10;82.50;;;;;;4963157;28;19918;-63
2022/07/25 10:01:01;;;;;;;;;;;32.50;81.10;;;;;;4967562;28;19917;-66
2022/07/25 10:03:45;;;;;;;;;;;32.30;81.60;;;;;;4958494;28;19906;-62
2022/07/25 10:06:19;;;;;;;;;;;32.10;80.80;;;;;;4940751;28;19907;-62
2022/07/25 10:08:44;;;;;;;;;;;32.90;79.30;;;;;;4954184;28;19906;-62
2022/07/25 10:11:24;;;;;;;;;;;33.40;78.90;;;;;;4948690;28;19960;-65
2022/07/25 10:13:50;;;;;;;;;;;33.10;78.90;;;;;;4952192;28;19913;-62
2022/07/25 10:16:18;;;;;;;;;;;32.60;79.10;;;;;;4945566;28;19913;-62
2022/07/25 10:18:51;;;;;;;;;;;32.20;80.00;;;;;;4958053;28;19906;-62
2022/07/25 10:21:17;;;;;;;;;;;32.20;80.70;;;;;;4948433;28;19914;-62
2022/07/25 10:23:45;;;;;;;;;;;32.30;79.90;;;;;;4955536;28;19919;-62
2022/07/25 10:26:18;;;;;;;;;;;32.90;80.30;;;;;;4948765;28;20005;-62
2022/07/25 10:28:48;;;;;;;;;;;33.10;79.20;;;;;;4964041;28;19914;-62
2022/07/25 10:31:18;;;;;;;;;;;32.30;79.30;;;;;;4972723;28;20289;-64
2022/07/25 10:33:46;;;;;;;;;;;31.50;80.20;;;;;;4964857;28;20373;-64
2022/07/25 10:36:12;;;;;;;;;;;31.00;82.60;;;;;;4961729;28;19910;-64
2022/07/25 10:38:39;;;;;;;;;;;30.80;82.70;;;;;;4957867;28;19917;-64
2022/07/25 10:41:07;;;;;;;;;;;30.50;83.10;;;;;;4938206;28;19911;-64
2022/07/25 10:43:36;;;;;;;;;;;30.50;84.20;;;;;;4957039;28;19928;-64
2022/07/25 10:46:09;;;;;;;;;;;30.50;84.30;;;;;;4959011;28;19989;-64
2022/07/25 10:48:36;;;;;;;;;;;30.20;85.30;;;;;;4961679;28;19906;-64
2022/07/25 10:51:03;;;;;;;;;;;29.70;85.80;;;;;;4960576;28;19906;-63
2022/07/25 10:53:42;;;;;;;;;;;28.90;87.40;;;;;;4961613;28;20166;-64
2022/07/25 10:56:09;;;;;;;;;;;28.60;89.50;;;;;;4959343;28;19910;-63
2022/07/25 10:58:40;;;;;;;;;;;28.30;91.50;;;;;;4964145;28;20294;-63
2022/07/25 11:01:06;;;;;;;;;;;28.20;90.30;;;;;;4963114;28;19929;-63
2022/07/25 11:03:32;;;;;;;;;;;27.80;91.10;;;;;;4968774;28;19907;-64
2022/07/25 11:05:57;;;;;;;;;;;27.90;90.50;;;;;;4970068;28;19957;-63
2022/07/25 11:08:30;;;;;;;;;;;27.60;90.30;;;;;;4965106;28;19910;-63
2022/07/25 11:10:55;;;;;;;;;;;27.60;90.60;;;;;;4965056;28;20401;-63
2022/07/25 11:13:21;;;;;;;;;;;28.00;90.30;;;;;;4963786;28;19906;-63
2022/07/25 11:15:47;;;;;;;;;;;28.50;90.20;;;;;;4967085;28;19913;-63
2022/07/25 11:18:12;;;;;;;;;;;28.80;89.10;;;;;;4963789;28;20041;-63
2022/07/25 11:20:38;;;;;;;;;;;29.20;88.10;;;;;;4948949;28;19953;-63
2022/07/25 11:23:03;;;;;;;;;;;29.00;89.00;;;;;;4962317;28;19922;-63
2022/07/25 11:25:29;;;;;;;;;;;29.40;88.30;;;;;;4949766;28;20353;-64
2022/07/25 11:27:56;;;;;;;;;;;29.60;87.20;;;;;;4962912;28;19981;-64
2022/07/25 11:30:22;;;;;;;;;;;30.60;86.90;;;;;;4966137;28;19906;-64
2022/07/25 11:32:48;;;;;;;;;;;31.10;85.70;;;;;;4958864;28;19921;-64
2022/07/25 11:35:14;;;;;;;;;;;31.50;84.30;;;;;;4960340;28;19906;-64
2022/07/25 11:37:42;;;;;;;;;;;32.20;82.70;;;;;;4958455;28;20350;-64
2022/07/25 11:40:08;;;;;;;;;;;32.50;82.20;;;;;;4957778;28;19930;-62
2022/07/25 11:42:40;;;;;;;;;;;32.40;81.40;;;;;;4964466;28;20286;-61
2022/07/25 11:45:20;;;;;;;;;;;32.10;81.20;;;;;;4956564;28;20368;-65
2022/07/25 11:47:46;;;;;;;;;;;32.70;82.10;;;;;;4960142;28;20344;-62
2022/07/25 11:50:13;;;;;;;;;;;32.20;81.50;;;;;;4955886;28;20301;-62
2022/07/25 11:52:41;;;;;;;;;;;32.90;79.90;;;;;;4957268;28;19914;-62
2022/07/25 11:55:08;;;;;;;;;;;32.00;79.20;;;;;;4955894;28;19910;-61
2022/07/25 11:57:34;;;;;;;;;;;31.80;81.70;;;;;;4958610;28;20285;-62
2022/07/25 12:00:01;;;;;;;;;;;31.40;81.90;;;;;;4963547;28;20238;-62
2022/07/25 12:02:29;;;;;;;;;;;31.50;81.50;;;;;;4959427;28;20268;-61
2022/07/25 12:05:03;;;;;;;;;;;31.10;82.50;;;;;;4964777;28;20318;-61
2022/07/25 12:07:34;;;;;;;;;;;31.60;82.80;;;;;;4961716;28;19969;-61
2022/07/25 12:10:00;;;;;;;;;;;32.50;81.60;;;;;;4967403;28;20358;-61
2022/07/25 12:12:25;;;;;;;;;;;31.70;81.40;;;;;;4959614;28;19917;-61
2022/07/25 12:14:51;;;;;;;;;;;32.90;82.00;;;;;;4951208;28;20424;-61
2022/07/25 12:17:17;;;;;;;;;;;33.40;81.20;;;;;;4962031;28;19915;-62
2022/07/25 12:19:43;;;;;;;;;;;32.40;81.20;;;;;;4959302;28;19917;-62
2022/07/25 12:22:09;;;;;;;;;;;31.80;82.90;;;;;;4964980;28;20366;-62
2022/07/25 12:24:35;;;;;;;;;;;31.60;82.20;;;;;;4950594;28;19921;-61
2022/07/25 12:27:00;;;;;;;;;;;31.80;83.40;;;;;;4967657;28;19906;-61
2022/07/25 12:29:26;;;;;;;;;;;32.00;81.80;;;;;;4949144;28;19907;-61
2022/07/25 12:31:51;;;;;;;;;;;31.70;83.20;;;;;;4960253;28;19921;-61
2022/07/25 12:34:17;;;;;;;;;;;31.30;84.20;;;;;;4965032;28;19906;-61
2022/07/25 12:36:43;;;;;;;;;;;31.20;82.70;;;;;;4960666;28;20001;-61
2022/07/25 12:39:09;;;;;;;;;;;30.70;84.20;;;;;;4959683;28;19918;-61
2022/07/25 12:41:35;;;;;;;;;;;31.20;86.40;;;;;;4961463;28;20308;-62
2022/07/25 12:44:01;;;;;;;;;;;30.70;83.20;;;;;;4949765;28;19906;-63
2022/07/25 12:46:27;;;;;;;;;;;30.80;82.30;;;;;;4963974;28;19909;-63
2022/07/25 12:48:52;;;;;;;;;;;31.20;80.90;;;;;;4970075;28;20432;-63
2022/07/25 12:51:19;;;;;;;;;;;31.20;80.80;;;;;;4967980;28;20381;-64
2022/07/25 12:53:44;;;;;;;;;;;30.70;80.90;;;;;;4948474;28;19914;-64
2022/07/25 12:56:10;;;;;;;;;;;30.90;80.40;;;;;;4959401;28;20442;-64
2022/07/25 12:58:36;;;;;;;;;;;30.80;80.50;;;;;;4962065;28;20378;-64
2022/07/25 13:01:02;;;;;;;;;;;30.80;80.50;;;;;;4963636;28;20282;-63
2022/07/25 13:03:28;;;;;;;;;;;30.50;81.30;;;;;;4947128;28;20058;-64
2022/07/25 13:05:53;;;;;;;;;;;30.50;81.00;;;;;;4960185;28;19934;-64
2022/07/25 13:08:19;;;;;;;;;;;30.20;81.70;;;;;;4959795;28;19913;-64
2022/07/25 13:10:44;;;;;;;;;;;30.80;80.50;;;;;;4962968;28;19937;-64
2022/07/25 13:13:10;;;;;;;;;;;31.60;80.00;;;;;;4964899;28;20429;-63
2022/07/25 13:15:35;;;;;;;;;;;31.30;79.30;;;;;;4961106;28;20372;-64
2022/07/25 13:18:01;;;;;;;;;;;31.60;79.40;;;;;;4964674;28;19914;-64
2022/07/25 13:20:28;;;;;;;;;;;31.60;79.30;;;;;;4965071;28;19910;-64
2022/07/25 13:22:54;;;;;;;;;;;31.40;79.80;;;;;;4961721;28;19922;-67
2022/07/25 13:25:19;;;;;;;;;;;31.80;78.60;;;;;;4957473;28;19917;-63
2022/07/25 13:27:46;;;;;;;;;;;31.70;78.80;;;;;;4962709;28;19910;-63
2022/07/25 13:30:13;;;;;;;;;;;32.10;78.20;;;;;;4965589;28;19993;-63
2022/07/25 13:32:39;;;;;;;;;;;32.50;77.60;;;;;;4941705;28;20275;-63
2022/07/25 13:35:04;;;;;;;;;;;32.90;76.50;;;;;;4957853;28;19912;-63
2022/07/25 13:37:30;;;;;;;;;;;33.90;76.10;;;;;;4959464;28;19958;-63
2022/07/25 13:39:56;;;;;;;;;;;34.40;75.80;;;;;;4958434;28;19930;-63
2022/07/25 13:42:22;;;;;;;;;;;34.30;73.90;;;;;;4948190;28;19907;-63
2022/07/25 13:44:47;;;;;;;;;;;33.00;75.40;;;;;;4962617;28;19906;-63
2022/07/25 13:47:13;;;;;;;;;;;33.70;76.20;;;;;;4957329;28;20135;-63
2022/07/25 13:49:39;;;;;;;;;;;34.40;74.20;;;;;;4958030;28;19930;-63
2022/07/25 13:52:05;;;;;;;;;;;33.70;74.70;;;;;;4963160;28;19918;-63
2022/07/25 13:54:30;;;;;;;;;;;32.60;76.60;;;;;;4947969;28;19917;-63
2022/07/25 13:56:56;;;;;;;;;;;32.10;79.20;;;;;;4957711;28;19910;-63
2022/07/25 13:59:21;;;;;;;;;;;32.00;78.50;;;;;;4958950;28;19907;-63
2022/07/25 14:01:47;;;;;;;;;;;30.90;79.60;;;;;;4959966;28;20366;-63
2022/07/25 14:04:13;;;;;;;;;;;30.90;80.50;;;;;;4957237;28;19911;-63
2022/07/25 14:06:38;;;;;;;;;;;30.90;80.10;;;;;;4960155;28;19913;-63
2022/07/25 14:09:04;;;;;;;;;;;31.20;80.60;;;;;;4961584;28;19981;-63
2022/07/25 14:11:30;;;;;;;;;;;31.30;80.70;;;;;;4939239;28;20008;-63